Aérodrome :
LOGIN :

S'inscrire | Disclaimer

   EN    FR    IT 

 










Légende :    VFR   VFR Marginal   IFR   IFR Intensif   IFR Très Intensif
Visi : 
Plafond : 
>= 8 km
>= 3000ft
5 à 8 km
1000 à 3000 ft
1500m à 5 km
500 à 1000 ft
800 à 1500m
200 à 500 ft
< 800m
< 200 ft
Symboles :   Orages  Brouillard  Fortes neiges  Fortes précipitations  Vent > 20 kt
SIGMETs :   Divers  Orages  Givrage  Turbulence  Onde Orograph.  Cendres Volcan.






- Altitude de l'aérodrome : 5600 ft
- Code IATA : SMV


LSZS - Samedan

DERNIER METAR :
  • 200920Z VRB02KT 9999 FEW023 SCT027 M14/M16 Q1017 RMK F TL170

METARs EXPIRÉS :
  • 200850Z 00000KT 9999 FEW021 SCT024 M15/M17 Q1017 RMK D TL170
  • 200820Z 00000KT 9999 BKN025 M16/M18 Q1017 RMK D TL170
  • 200750Z 00000KT 9999 BKN016 M16/M18 Q1017 RMK C TL170
  • 200720Z VRB02KT 9999 BKN016 M18/M20 Q1016 RMK B TL170
  • 200650Z VRB01KT 9999 SCT024 M17/M19 Q1016 RMK ATL170

TAF TAF LSZS
Valide du 20 à 09h jusqu'au 20 à 18h UTC


200825Z 2009/2018 VRB02KT 9999 BKN016 TXM04/2014Z
PROB30 2009/2011 BKN014
TEMPO 2012/2018 22010KT
ATIS : +41 81 834 93 24



MET'MAP, la Météo Aéronautique d'un coup d'oeil ! - Copyright ORBIFLY Décembre 2007 - Disclaimer

ORBIFLY MET'MAP TEAM :

Programmation & Développement : Alexandra Zaïnal
Sur une idée originale de : Baudouin d'Aumeries
Assistance à la programmation : Marc-Olivier Méhu
Soutien technique & logistique : Manuel Goepfert

Contact : metmap@orbifly.com




SOURCES & CREDITS :

   NOAA